createdAt,value
2023-08-17T00:01:43.326Z,22.14
2023-08-17T00:06:48.153Z,22.13
2023-08-17T00:11:50.944Z,22.04
2023-08-17T00:16:54.756Z,22.05
2023-08-17T00:21:59.088Z,22.06
2023-08-17T00:27:01.986Z,22.00
2023-08-17T00:32:05.556Z,21.97
2023-08-17T00:37:09.704Z,21.91
2023-08-17T00:42:12.539Z,21.94
2023-08-17T00:47:15.942Z,21.96
2023-08-17T00:52:20.106Z,21.86
2023-08-17T00:57:23.448Z,21.81
2023-08-17T01:02:26.873Z,21.85
2023-08-17T01:07:31.130Z,21.77
2023-08-17T01:12:35.102Z,21.78
2023-08-17T01:17:43.027Z,21.80
2023-08-17T01:22:51.052Z,21.85
2023-08-17T01:27:55.297Z,21.82
2023-08-17T01:33:00.747Z,21.78
2023-08-17T01:38:09.765Z,21.77
2023-08-17T01:43:14.593Z,21.72
2023-08-17T01:48:17.494Z,21.68
2023-08-17T01:53:20.289Z,21.59
2023-08-17T01:58:24.479Z,21.55
2023-08-17T02:03:30.022Z,21.49
2023-08-17T02:08:32.834Z,21.48
2023-08-17T02:13:38.227Z,21.48
2023-08-17T02:18:41.937Z,21.48
2023-08-17T02:23:44.849Z,21.56
2023-08-17T02:28:49.026Z,21.16
2023-08-17T02:33:51.797Z,20.91
2023-08-17T02:38:54.590Z,20.99
2023-08-17T02:43:58.669Z,20.85
2023-08-17T02:49:01.452Z,20.87
2023-08-17T02:54:04.260Z,21.05
2023-08-17T02:59:08.709Z,21.16
2023-08-17T03:04:11.589Z,20.99
2023-08-17T03:09:14.315Z,21.07
2023-08-17T03:14:18.596Z,21.09
2023-08-17T03:19:21.417Z,21.10
2023-08-17T03:24:24.231Z,21.11
2023-08-17T03:29:29.414Z,21.15
2023-08-17T03:34:32.494Z,21.09
2023-08-17T03:39:37.573Z,21.17
2023-08-17T03:44:41.961Z,21.06
2023-08-17T03:49:44.711Z,21.15
2023-08-17T03:54:47.666Z,21.09
2023-08-17T03:59:51.774Z,21.06
2023-08-17T04:04:54.741Z,21.08
2023-08-17T04:09:57.628Z,21.14
2023-08-17T04:15:01.880Z,21.18
2023-08-17T04:20:06.712Z,21.21
2023-08-17T04:25:10.711Z,20.94
2023-08-17T04:30:20.206Z,20.05
2023-08-17T04:35:32.198Z,19.57
2023-08-17T04:40:39.518Z,19.92
2023-08-17T04:45:50.242Z,20.30
2023-08-17T04:50:58.785Z,20.44
2023-08-17T04:56:06.061Z,20.36
2023-08-17T05:01:15.431Z,20.32
2023-08-17T05:06:23.316Z,20.45
2023-08-17T05:11:29.812Z,20.53
2023-08-17T05:16:35.645Z,20.46
2023-08-17T05:43:52.917Z,20.63
2023-08-17T06:02:15.511Z,20.56
2023-08-17T06:14:52.070Z,20.70
2023-08-17T06:20:01.402Z,20.55
2023-08-17T06:25:14.405Z,20.67
2023-08-17T06:30:22.878Z,20.94
2023-08-17T06:36:33.181Z,21.36
2023-08-17T06:41:37.465Z,21.22
2023-08-17T06:47:14.654Z,21.13
2023-08-17T06:52:24.080Z,21.23
2023-08-17T06:57:31.551Z,21.43
2023-08-17T07:02:46.544Z,21.35
2023-08-17T07:07:55.119Z,21.58
2023-08-17T07:13:03.846Z,21.31
2023-08-17T07:18:07.568Z,21.18
2023-08-17T07:23:11.549Z,21.42
2023-08-17T07:28:16.604Z,21.59
2023-08-17T07:33:19.524Z,21.79
2023-08-17T07:38:22.568Z,21.94
2023-08-17T07:43:27.287Z,22.15
2023-08-17T07:48:34.498Z,22.25
2023-08-17T07:53:37.586Z,22.05
2023-08-17T07:58:41.872Z,22.17
2023-08-17T08:03:44.895Z,22.11
2023-08-17T08:08:47.818Z,22.19
2023-08-17T08:13:52.358Z,22.45
2023-08-17T08:18:59.245Z,22.55
2023-08-17T08:24:04.982Z,22.44
2023-08-17T08:29:11.207Z,22.82
2023-08-17T08:34:21.598Z,23.07
2023-08-17T08:39:27.725Z,23.17
2023-08-17T08:51:53.991Z,23.36
2023-08-17T09:05:27.748Z,24.19
2023-08-17T09:15:41.259Z,24.73
2023-08-17T09:20:47.724Z,24.41
2023-08-17T09:25:58.904Z,24.81
2023-08-17T09:31:05.025Z,24.37
2023-08-17T09:36:08.095Z,24.27
2023-08-17T09:41:15.017Z,24.56
2023-08-17T09:46:18.134Z,24.75
2023-08-17T09:51:20.918Z,25.01
2023-08-17T09:56:25.869Z,24.95
2023-08-17T10:01:30.269Z,24.77
2023-08-17T10:06:34.501Z,25.11
2023-08-17T10:11:40.316Z,25.66
2023-08-17T10:16:46.663Z,26.23
2023-08-17T10:21:54.628Z,26.82
2023-08-17T10:26:59.430Z,26.71
2023-08-17T10:32:02.480Z,27.59
2023-08-17T10:37:05.761Z,27.70
2023-08-17T10:42:10.327Z,27.04
2023-08-17T10:47:24.480Z,26.83
2023-08-17T10:52:32.654Z,26.69
2023-08-17T10:57:40.983Z,26.79
2023-08-17T11:02:46.928Z,26.98
2023-08-17T11:07:50.684Z,27.16
2023-08-17T11:12:58.005Z,27.25
2023-08-17T11:18:01.619Z,27.67
2023-08-17T11:23:10.902Z,27.70
2023-08-17T11:28:20.562Z,28.21
2023-08-17T11:33:27.863Z,28.77
2023-08-17T11:38:35.358Z,29.11
2023-08-17T11:43:42.124Z,28.50
2023-08-17T11:50:03.442Z,29.08
2023-08-17T12:03:19.432Z,38.62
2023-08-17T12:08:30.058Z,38.62
2023-08-17T12:14:13.679Z,51.00
2023-08-17T12:19:24.222Z,52.74
2023-08-17T12:24:29.215Z,52.74
2023-08-17T12:29:32.087Z,45.75
2023-08-17T12:34:36.360Z,36.80
2023-08-17T12:39:39.420Z,36.88
2023-08-17T12:45:06.091Z,41.63
2023-08-17T12:50:12.538Z,43.87
2023-08-17T12:55:16.361Z,52.46
2023-08-17T13:00:25.019Z,57.28
2023-08-17T13:05:31.485Z,54.33
2023-08-17T13:10:34.539Z,59.73
2023-08-17T13:15:38.173Z,59.52
2023-08-17T13:28:28.406Z,60.22
2023-08-17T13:33:31.376Z,61.80
2023-08-17T13:39:37.921Z,57.20
2023-08-17T13:44:42.460Z,58.28
2023-08-17T13:49:46.263Z,60.17
2023-08-17T13:54:49.274Z,59.61
2023-08-17T13:59:54.248Z,57.68
2023-08-17T14:19:12.271Z,35.10
2023-08-17T14:24:15.184Z,33.19
2023-08-17T14:29:18.034Z,32.18
2023-08-17T14:34:25.578Z,31.38
2023-08-17T14:39:28.940Z,30.87
2023-08-17T14:44:31.839Z,30.30
2023-08-17T14:49:36.017Z,29.81
2023-08-17T14:54:43.250Z,29.44
2023-08-17T14:59:46.581Z,29.06
2023-08-17T15:04:50.889Z,28.81
2023-08-17T15:09:54.664Z,28.58
2023-08-17T15:14:57.652Z,28.34
2023-08-17T15:20:02.343Z,28.11
2023-08-17T15:25:05.763Z,27.86
2023-08-17T15:30:10.308Z,27.69
2023-08-17T15:35:15.136Z,27.59
2023-08-17T15:40:18.066Z,27.42
2023-08-17T15:45:21.729Z,27.28
2023-08-17T15:50:26.009Z,27.19
2023-08-17T15:55:29.099Z,27.12
2023-08-17T16:00:32.589Z,27.04
2023-08-17T16:05:36.776Z,26.92
2023-08-17T16:10:39.822Z,26.88
2023-08-17T16:15:42.689Z,26.78
2023-08-17T16:20:46.958Z,26.71
2023-08-17T16:25:49.954Z,26.65
2023-08-17T16:30:52.795Z,26.63
2023-08-17T16:35:57.120Z,26.61
2023-08-17T16:41:00.055Z,26.57
2023-08-17T16:46:03.111Z,26.52
2023-08-17T16:51:07.625Z,26.50
2023-08-17T16:56:10.657Z,26.45
2023-08-17T17:01:15.423Z,26.36
2023-08-17T17:06:20.671Z,26.33
2023-08-17T17:11:23.510Z,26.24
2023-08-17T17:16:26.462Z,26.17
2023-08-17T17:21:30.718Z,26.01
2023-08-17T17:26:37.589Z,25.99
2023-08-17T17:31:40.755Z,25.98
2023-08-17T17:36:45.121Z,25.95
2023-08-17T17:41:48.969Z,25.82
2023-08-17T17:46:52.759Z,25.78
2023-08-17T17:51:57.060Z,25.64
2023-08-17T17:57:00.723Z,25.47
2023-08-17T18:02:03.716Z,25.35
2023-08-17T18:07:08.102Z,25.34
2023-08-17T18:12:11.082Z,25.27
2023-08-17T18:17:14.409Z,25.25
2023-08-17T18:22:18.857Z,25.19
2023-08-17T18:27:22.703Z,25.24
2023-08-17T18:32:25.627Z,25.22
2023-08-17T18:37:30.045Z,25.15
2023-08-17T18:42:33.092Z,25.12
2023-08-17T18:47:35.942Z,25.02
2023-08-17T18:52:40.302Z,24.63
2023-08-17T18:57:43.210Z,24.40
2023-08-17T19:02:46.125Z,24.43
2023-08-17T19:07:50.494Z,24.46
2023-08-17T19:12:53.462Z,24.45
2023-08-17T19:17:56.656Z,24.35
2023-08-17T19:23:01.172Z,24.24
2023-08-17T19:28:04.079Z,24.11
2023-08-17T19:33:06.886Z,24.06
2023-08-17T19:38:11.219Z,23.97
2023-08-17T19:43:14.343Z,23.95
2023-08-17T19:48:17.193Z,23.93
2023-08-17T19:53:21.784Z,23.97
2023-08-17T19:58:24.700Z,23.98
2023-08-17T20:03:27.582Z,23.97
2023-08-17T20:08:31.825Z,23.94
2023-08-17T20:13:34.841Z,23.89
2023-08-17T20:18:37.720Z,23.83
2023-08-17T20:23:44.624Z,23.82
2023-08-17T20:28:47.490Z,23.78
2023-08-17T20:33:50.606Z,23.70
2023-08-17T20:38:54.697Z,23.69
2023-08-17T20:43:57.495Z,23.62
2023-08-17T20:49:00.371Z,23.54
2023-08-17T20:54:04.777Z,23.45
2023-08-17T20:59:07.760Z,23.44
2023-08-17T21:04:10.691Z,23.40
2023-08-17T21:09:16.946Z,23.45
2023-08-17T21:14:20.271Z,23.48
2023-08-17T21:19:23.124Z,23.34
2023-08-17T21:24:28.004Z,23.38
2023-08-17T21:29:30.831Z,23.41
2023-08-17T21:34:33.622Z,23.43
2023-08-17T21:39:38.121Z,23.40
2023-08-17T21:44:40.897Z,23.38
2023-08-17T21:49:43.918Z,23.32
2023-08-17T21:54:50.544Z,23.26
2023-08-17T21:59:53.635Z,23.13
2023-08-17T22:04:56.386Z,22.83
2023-08-17T22:10:00.525Z,22.63
2023-08-17T22:15:03.569Z,22.66
2023-08-17T22:20:07.711Z,22.71
2023-08-17T22:25:12.035Z,22.75
2023-08-17T22:30:15.237Z,22.71
2023-08-17T22:35:18.128Z,22.69
2023-08-17T22:40:22.268Z,22.62
2023-08-17T22:45:25.252Z,22.53
2023-08-17T22:50:28.033Z,22.49
2023-08-17T22:55:32.191Z,22.44
2023-08-17T23:00:34.976Z,22.32
2023-08-17T23:05:37.779Z,22.29
2023-08-17T23:10:41.895Z,22.27
2023-08-17T23:15:46.268Z,22.15
2023-08-17T23:20:49.131Z,22.10
2023-08-17T23:25:53.712Z,22.06
2023-08-17T23:30:59.563Z,21.97
2023-08-17T23:36:02.470Z,21.91
2023-08-17T23:41:06.586Z,21.82
2023-08-17T23:46:09.456Z,21.78
2023-08-17T23:51:12.325Z,21.77
2023-08-17T23:56:16.458Z,21.74
